Terminal Aerodrome Forecast
Issued by NWS

Home | Current Version | Previous Version | Text Only | Print | Product List | Glossary On
Versions: 1 2 3 4 5 6 7 8 9 10 11 12 13 14 15 16 17 18 19 20 21 22 23 24 25 26
000
FTUS45 KRIW 300500
TAFPNA
TAF
KPNA 300540Z 3006/3106 VRB05KT P6SM FEW080 SCT120
     FM300900 VRB05KT P6SM VCSH SCT080 BKN120
     FM301700 28012G20KT P6SM VCSH SCT080 BKN110
     FM301900 28020G30KT P6SM VCTS SCT070CB BKN100
     FM310200 30011KT P6SM VCSH SCT070 BKN110
      AMD LTD TO CLD VIS AND WIND=

USA.gov is the U.S. government's official web portal to all federal, state and local government web resources and services.